sensor_id;sensor_type;location;lat;lon;timestamp;pressure;altitude;pressure_sealevel;temperature
78961;BMP280;68362;45.970;12.646;2023-04-03T00:00:54;101049.16;;;11.20
78961;BMP280;68362;45.970;12.646;2023-04-03T00:01:57;101049.69;;;11.29
78961;BMP280;68362;45.970;12.646;2023-04-03T00:02:59;101047.75;;;11.18
78961;BMP280;68362;45.970;12.646;2023-04-03T00:04:01;101051.91;;;11.00
78961;BMP280;68362;45.970;12.646;2023-04-03T00:05:03;101051.00;;;11.13
78961;BMP280;68362;45.970;12.646;2023-04-03T00:06:06;101049.72;;;11.22
78961;BMP280;68362;45.970;12.646;2023-04-03T00:07:10;101053.75;;;10.93
78961;BMP280;68362;45.970;12.646;2023-04-03T00:08:14;101049.31;;;10.87
78961;BMP280;68362;45.970;12.646;2023-04-03T00:09:16;101055.25;;;11.14
78961;BMP280;68362;45.970;12.646;2023-04-03T00:10:18;101051.47;;;11.03
78961;BMP280;68362;45.970;12.646;2023-04-03T00:11:21;101051.94;;;10.87
78961;BMP280;68362;45.970;12.646;2023-04-03T00:12:23;101051.50;;;10.97
78961;BMP280;68362;45.970;12.646;2023-04-03T00:13:25;101054.47;;;10.69
78961;BMP280;68362;45.970;12.646;2023-04-03T00:14:27;101051.78;;;10.30
78961;BMP280;68362;45.970;12.646;2023-04-03T00:15:29;101045.31;;;10.13
78961;BMP280;68362;45.970;12.646;2023-04-03T00:16:31;101052.00;;;10.16
78961;BMP280;68362;45.970;12.646;2023-04-03T00:17:33;101049.38;;;10.09
78961;BMP280;68362;45.970;12.646;2023-04-03T00:18:36;101044.88;;;10.36
78961;BMP280;68362;45.970;12.646;2023-04-03T00:19:39;101044.59;;;10.64
78961;BMP280;68362;45.970;12.646;2023-04-03T00:20:41;101045.91;;;10.86
78961;BMP280;68362;45.970;12.646;2023-04-03T00:21:44;101046.84;;;10.99
78961;BMP280;68362;45.970;12.646;2023-04-03T00:22:46;101041.44;;;10.94
78961;BMP280;68362;45.970;12.646;2023-04-03T00:23:48;101050.09;;;10.56
78961;BMP280;68362;45.970;12.646;2023-04-03T00:24:50;101045.66;;;10.43
78961;BMP280;68362;45.970;12.646;2023-04-03T00:25:52;101048.50;;;10.42
78961;BMP280;68362;45.970;12.646;2023-04-03T00:26:55;101044.09;;;10.36
78961;BMP280;68362;45.970;12.646;2023-04-03T00:27:57;101050.38;;;10.73
78961;BMP280;68362;45.970;12.646;2023-04-03T00:28:59;101047.78;;;10.66
78961;BMP280;68362;45.970;12.646;2023-04-03T00:30:02;101048.44;;;10.62
78961;BMP280;68362;45.970;12.646;2023-04-03T00:31:04;101042.47;;;10.86
78961;BMP280;68362;45.970;12.646;2023-04-03T00:32:06;101039.88;;;10.79
78961;BMP280;68362;45.970;12.646;2023-04-03T00:33:12;101038.06;;;10.80
78961;BMP280;68362;45.970;12.646;2023-04-03T00:34:14;101040.25;;;10.90
78961;BMP280;68362;45.970;12.646;2023-04-03T00:35:17;101039.81;;;10.93
78961;BMP280;68362;45.970;12.646;2023-04-03T00:36:20;101041.41;;;11.00
78961;BMP280;68362;45.970;12.646;2023-04-03T00:37:22;101040.91;;;11.10
78961;BMP280;68362;45.970;12.646;2023-04-03T00:38:24;101037.00;;;10.87
78961;BMP280;68362;45.970;12.646;2023-04-03T00:39:26;101040.97;;;10.58
78961;BMP280;68362;45.970;12.646;2023-04-03T00:40:41;101038.91;;;10.67
78961;BMP280;68362;45.970;12.646;2023-04-03T00:41:43;101039.72;;;10.68
78961;BMP280;68362;45.970;12.646;2023-04-03T00:42:46;101042.56;;;10.66
78961;BMP280;68362;45.970;12.646;2023-04-03T00:43:49;101037.81;;;10.37
78961;BMP280;68362;45.970;12.646;2023-04-03T00:45:59;101042.16;;;9.85
78961;BMP280;68362;45.970;12.646;2023-04-03T00:47:04;101048.19;;;9.59
78961;BMP280;68362;45.970;12.646;2023-04-03T00:48:10;101046.00;;;9.62
78961;BMP280;68362;45.970;12.646;2023-04-03T00:49:14;101051.38;;;9.41
78961;BMP280;68362;45.970;12.646;2023-04-03T00:50:17;101049.81;;;9.53
78961;BMP280;68362;45.970;12.646;2023-04-03T00:51:24;101043.53;;;9.61
78961;BMP280;68362;45.970;12.646;2023-04-03T00:52:28;101049.00;;;9.79
78961;BMP280;68362;45.970;12.646;2023-04-03T00:53:41;101051.19;;;10.15
78961;BMP280;68362;45.970;12.646;2023-04-03T00:54:45;101041.09;;;10.25
78961;BMP280;68362;45.970;12.646;2023-04-03T00:55:49;101041.31;;;10.24
78961;BMP280;68362;45.970;12.646;2023-04-03T00:56:51;101040.88;;;10.27
78961;BMP280;68362;45.970;12.646;2023-04-03T00:57:56;101036.84;;;10.31
78961;BMP280;68362;45.970;12.646;2023-04-03T00:59:04;101038.03;;;10.28
78961;BMP280;68362;45.970;12.646;2023-04-03T01:00:10;101049.19;;;10.04
78961;BMP280;68362;45.970;12.646;2023-04-03T01:01:16;101039.47;;;10.24
78961;BMP280;68362;45.970;12.646;2023-04-03T01:02:20;101045.16;;;10.01
78961;BMP280;68362;45.970;12.646;2023-04-03T01:03:23;101040.72;;;9.75
78961;BMP280;68362;45.970;12.646;2023-04-03T01:04:32;101041.75;;;9.48
78961;BMP280;68362;45.970;12.646;2023-04-03T01:05:35;101050.00;;;9.85
78961;BMP280;68362;45.970;12.646;2023-04-03T01:06:37;101042.16;;;9.98
78961;BMP280;68362;45.970;12.646;2023-04-03T01:07:39;101037.88;;;10.17
78961;BMP280;68362;45.970;12.646;2023-04-03T01:08:41;101044.31;;;10.27
78961;BMP280;68362;45.970;12.646;2023-04-03T01:09:45;101050.75;;;10.31
78961;BMP280;68362;45.970;12.646;2023-04-03T01:10:49;101041.25;;;10.37
78961;BMP280;68362;45.970;12.646;2023-04-03T01:11:51;101039.19;;;10.46
78961;BMP280;68362;45.970;12.646;2023-04-03T01:12:53;101041.25;;;10.37
78961;BMP280;68362;45.970;12.646;2023-04-03T01:13:55;101039.31;;;10.06
78961;BMP280;68362;45.970;12.646;2023-04-03T01:15:09;101034.44;;;10.16
78961;BMP280;68362;45.970;12.646;2023-04-03T01:16:12;101038.50;;;10.12
78961;BMP280;68362;45.970;12.646;2023-04-03T01:17:39;101036.84;;;10.31
78961;BMP280;68362;45.970;12.646;2023-04-03T01:18:42;101036.81;;;10.38
78961;BMP280;68362;45.970;12.646;2023-04-03T01:19:48;101038.00;;;10.42
78961;BMP280;68362;45.970;12.646;2023-04-03T01:22:30;101038.47;;;10.25
78961;BMP280;68362;45.970;12.646;2023-04-03T01:23:56;101037.72;;;9.92
78961;BMP280;68362;45.970;12.646;2023-04-03T01:25:00;101032.06;;;9.81
78961;BMP280;68362;45.970;12.646;2023-04-03T01:26:03;101035.50;;;9.89
78961;BMP280;68362;45.970;12.646;2023-04-03T01:27:06;101032.47;;;10.12
78961;BMP280;68362;45.970;12.646;2023-04-03T01:28:14;101030.00;;;10.17
78961;BMP280;68362;45.970;12.646;2023-04-03T01:29:17;101032.44;;;10.18
78961;BMP280;68362;45.970;12.646;2023-04-03T01:30:25;101034.59;;;10.34
78961;BMP280;68362;45.970;12.646;2023-04-03T01:31:32;101031.13;;;10.41
78961;BMP280;68362;45.970;12.646;2023-04-03T01:32:35;101028.53;;;10.34
78961;BMP280;68362;45.970;12.646;2023-04-03T01:33:38;101032.72;;;10.48
78961;BMP280;68362;45.970;12.646;2023-04-03T01:34:40;101033.59;;;10.36
78961;BMP280;68362;45.970;12.646;2023-04-03T01:35:42;101032.38;;;10.31
78961;BMP280;68362;45.970;12.646;2023-04-03T01:36:44;101031.31;;;10.46
78961;BMP280;68362;45.970;12.646;2023-04-03T01:37:47;101031.94;;;10.48
78961;BMP280;68362;45.970;12.646;2023-04-03T01:38:49;101033.94;;;10.46
78961;BMP280;68362;45.970;12.646;2023-04-03T01:39:51;101032.44;;;10.18
78961;BMP280;68362;45.970;12.646;2023-04-03T01:40:53;101025.72;;;10.29
78961;BMP280;68362;45.970;12.646;2023-04-03T01:41:55;101034.38;;;10.43
78961;BMP280;68362;45.970;12.646;2023-04-03T01:42:57;101031.78;;;10.29
78961;BMP280;68362;45.970;12.646;2023-04-03T01:43:59;101029.13;;;10.43
78961;BMP280;68362;45.970;12.646;2023-04-03T01:45:02;101024.09;;;10.34
78961;BMP280;68362;45.970;12.646;2023-04-03T01:46:04;101028.38;;;10.22
78961;BMP280;68362;45.970;12.646;2023-04-03T01:47:06;101028.09;;;10.44
78961;BMP280;68362;45.970;12.646;2023-04-03T01:48:08;101028.31;;;10.42
78961;BMP280;68362;45.970;12.646;2023-04-03T01:49:11;101021.06;;;10.44
78961;BMP280;68362;45.970;12.646;2023-04-03T01:50:13;101028.16;;;10.30
78961;BMP280;68362;45.970;12.646;2023-04-03T01:51:15;101022.66;;;10.45
78961;BMP280;68362;45.970;12.646;2023-04-03T01:52:17;101028.75;;;10.32
78961;BMP280;68362;45.970;12.646;2023-04-03T01:53:19;101028.53;;;10.34
78961;BMP280;68362;45.970;12.646;2023-04-03T01:54:22;101023.94;;;10.29
78961;BMP280;68362;45.970;12.646;2023-04-03T01:55:24;101025.88;;;10.41
78961;BMP280;68362;45.970;12.646;2023-04-03T01:56:26;101025.47;;;10.44
78961;BMP280;68362;45.970;12.646;2023-04-03T01:57:28;101027.13;;;10.31
78961;BMP280;68362;45.970;12.646;2023-04-03T01:58:30;101026.91;;;10.40
78961;BMP280;68362;45.970;12.646;2023-04-03T01:59:32;101025.88;;;10.47
78961;BMP280;68362;45.970;12.646;2023-04-03T02:00:34;101021.63;;;10.53
78961;BMP280;68362;45.970;12.646;2023-04-03T02:01:38;101023.41;;;10.59
78961;BMP280;68362;45.970;12.646;2023-04-03T02:02:41;101026.88;;;10.46
78961;BMP280;68362;45.970;12.646;2023-04-03T02:03:43;101028.28;;;10.49
78961;BMP280;68362;45.970;12.646;2023-04-03T02:04:45;101029.75;;;10.45
78961;BMP280;68362;45.970;12.646;2023-04-03T02:05:47;101022.28;;;10.42
78961;BMP280;68362;45.970;12.646;2023-04-03T02:06:50;101023.41;;;10.52
78961;BMP280;68362;45.970;12.646;2023-04-03T02:07:52;101019.44;;;10.50
78961;BMP280;68362;45.970;12.646;2023-04-03T02:08:54;101019.78;;;10.53
78961;BMP280;68362;45.970;12.646;2023-04-03T02:09:56;101023.66;;;10.51
78961;BMP280;68362;45.970;12.646;2023-04-03T02:10:58;101022.59;;;10.58
78961;BMP280;68362;45.970;12.646;2023-04-03T02:12:00;101010.69;;;10.63
78961;BMP280;68362;45.970;12.646;2023-04-03T02:13:02;101019.56;;;10.62
78961;BMP280;68362;45.970;12.646;2023-04-03T02:14:04;101019.44;;;10.50
78961;BMP280;68362;45.970;12.646;2023-04-03T02:15:06;101016.16;;;10.54
78961;BMP280;68362;45.970;12.646;2023-04-03T02:16:10;101013.94;;;10.58
78961;BMP280;68362;45.970;12.646;2023-04-03T02:17:13;101014.50;;;10.60
78961;BMP280;68362;45.970;12.646;2023-04-03T02:18:15;101012.53;;;10.49
78961;BMP280;68362;45.970;12.646;2023-04-03T02:19:17;101018.16;;;10.52
78961;BMP280;68362;45.970;12.646;2023-04-03T02:20:20;101015.63;;;10.32
78961;BMP280;68362;45.970;12.646;2023-04-03T02:21:22;101009.34;;;10.40
78961;BMP280;68362;45.970;12.646;2023-04-03T02:22:24;101016.00;;;10.43
78961;BMP280;68362;45.970;12.646;2023-04-03T02:23:27;101013.78;;;10.40
78961;BMP280;68362;45.970;12.646;2023-04-03T02:24:29;101019.66;;;10.42
78961;BMP280;68362;45.970;12.646;2023-04-03T02:25:32;101010.13;;;10.41
78961;BMP280;68362;45.970;12.646;2023-04-03T02:26:34;101021.31;;;10.29
78961;BMP280;68362;45.970;12.646;2023-04-03T02:27:36;101017.94;;;9.96
78961;BMP280;68362;45.970;12.646;2023-04-03T02:28:39;101019.56;;;9.84
78961;BMP280;68362;45.970;12.646;2023-04-03T02:29:41;101015.53;;;9.54
78961;BMP280;68362;45.970;12.646;2023-04-03T02:30:43;101015.16;;;9.51
78961;BMP280;68362;45.970;12.646;2023-04-03T02:31:45;101019.34;;;9.52
78961;BMP280;68362;45.970;12.646;2023-04-03T02:32:47;101016.72;;;9.52
78961;BMP280;68362;45.970;12.646;2023-04-03T02:33:49;101015.53;;;9.48
78961;BMP280;68362;45.970;12.646;2023-04-03T02:34:51;101017.94;;;9.29
78961;BMP280;68362;45.970;12.646;2023-04-03T02:35:55;101012.31;;;9.59
78961;BMP280;68362;45.970;12.646;2023-04-03T02:36:57;101016.53;;;9.80
78961;BMP280;68362;45.970;12.646;2023-04-03T02:37:59;101006.25;;;9.92
78961;BMP280;68362;45.970;12.646;2023-04-03T02:39:01;101017.56;;;9.86
78961;BMP280;68362;45.970;12.646;2023-04-03T02:40:05;101004.19;;;9.94
78961;BMP280;68362;45.970;12.646;2023-04-03T02:41:09;101014.69;;;10.00
78961;BMP280;68362;45.970;12.646;2023-04-03T02:42:12;101020.34;;;9.91
78961;BMP280;68362;45.970;12.646;2023-04-03T02:43:14;101021.38;;;9.90
78961;BMP280;68362;45.970;12.646;2023-04-03T02:44:16;101010.25;;;9.88
78961;BMP280;68362;45.970;12.646;2023-04-03T02:45:19;101013.91;;;9.87
78961;BMP280;68362;45.970;12.646;2023-04-03T02:46:21;101005.84;;;9.95
78961;BMP280;68362;45.970;12.646;2023-04-03T02:47:23;101012.06;;;9.94
78961;BMP280;68362;45.970;12.646;2023-04-03T02:48:25;101007.47;;;9.89
78961;BMP280;68362;45.970;12.646;2023-04-03T02:49:28;101007.50;;;9.56
78961;BMP280;68362;45.970;12.646;2023-04-03T02:50:30;101010.28;;;9.61
78961;BMP280;68362;45.970;12.646;2023-04-03T02:51:32;101013.34;;;9.71
78961;BMP280;68362;45.970;12.646;2023-04-03T02:52:34;101013.13;;;9.53
78961;BMP280;68362;45.970;12.646;2023-04-03T02:53:36;101008.31;;;9.50
78961;BMP280;68362;45.970;12.646;2023-04-03T02:54:38;101004.22;;;9.41
78961;BMP280;68362;45.970;12.646;2023-04-03T02:55:40;101005.88;;;9.42
78961;BMP280;68362;45.970;12.646;2023-04-03T02:56:43;101010.59;;;8.92
78961;BMP280;68362;45.970;12.646;2023-04-03T02:57:44;101013.00;;;8.80
78961;BMP280;68362;45.970;12.646;2023-04-03T02:58:47;101010.78;;;8.90
78961;BMP280;68362;45.970;12.646;2023-04-03T02:59:49;101010.84;;;9.10
78961;BMP280;68362;45.970;12.646;2023-04-03T03:00:51;101012.59;;;8.96
78961;BMP280;68362;45.970;12.646;2023-04-03T03:01:53;101005.84;;;9.28
78961;BMP280;68362;45.970;12.646;2023-04-03T03:02:55;101006.69;;;9.36
78961;BMP280;68362;45.970;12.646;2023-04-03T03:03:58;101003.03;;;9.37
78961;BMP280;68362;45.970;12.646;2023-04-03T03:05:01;101005.84;;;9.35
78961;BMP280;68362;45.970;12.646;2023-04-03T03:06:15;101001.81;;;9.46
78961;BMP280;68362;45.970;12.646;2023-04-03T03:07:18;101005.84;;;9.55
78961;BMP280;68362;45.970;12.646;2023-04-03T03:08:20;101001.22;;;9.64
78961;BMP280;68362;45.970;12.646;2023-04-03T03:09:22;101004.25;;;9.21
78961;BMP280;68362;45.970;12.646;2023-04-03T03:10:24;101008.00;;;9.05
78961;BMP280;68362;45.970;12.646;2023-04-03T03:11:26;101005.81;;;9.02
78961;BMP280;68362;45.970;12.646;2023-04-03T03:12:28;101004.63;;;9.24
78961;BMP280;68362;45.970;12.646;2023-04-03T03:13:33;100998.97;;;9.14
78961;BMP280;68362;45.970;12.646;2023-04-03T03:14:35;101006.66;;;9.42
78961;BMP280;68362;45.970;12.646;2023-04-03T03:15:37;101004.25;;;9.47
78961;BMP280;68362;45.970;12.646;2023-04-03T03:16:39;101003.84;;;9.44
78961;BMP280;68362;45.970;12.646;2023-04-03T03:17:41;101005.88;;;9.42
78961;BMP280;68362;45.970;12.646;2023-04-03T03:18:44;101007.47;;;9.63
78961;BMP280;68362;45.970;12.646;2023-04-03T03:19:46;101005.06;;;9.54
78961;BMP280;68362;45.970;12.646;2023-04-03T03:20:53;101004.03;;;9.55
78961;BMP280;68362;45.970;12.646;2023-04-03T03:21:55;101003.63;;;9.52
78961;BMP280;68362;45.970;12.646;2023-04-03T03:22:58;100999.41;;;9.38
78961;BMP280;68362;45.970;12.646;2023-04-03T03:24:00;100999.00;;;9.61
78961;BMP280;68362;45.970;12.646;2023-04-03T03:25:03;101001.22;;;9.70
78961;BMP280;68362;45.970;12.646;2023-04-03T03:26:08;101003.06;;;9.57
78961;BMP280;68362;45.970;12.646;2023-04-03T03:27:10;101008.28;;;9.70
78961;BMP280;68362;45.970;12.646;2023-04-03T03:28:12;101012.09;;;9.80
78961;BMP280;68362;45.970;12.646;2023-04-03T03:29:14;101009.91;;;9.77
78961;BMP280;68362;45.970;12.646;2023-04-03T03:30:16;101008.88;;;9.92
78961;BMP280;68362;45.970;12.646;2023-04-03T03:31:18;101003.41;;;9.87
78961;BMP280;68362;45.970;12.646;2023-04-03T03:32:20;101003.81;;;9.90
78961;BMP280;68362;45.970;12.646;2023-04-03T03:33:22;101007.47;;;9.69
78961;BMP280;68362;45.970;12.646;2023-04-03T03:34:25;101003.41;;;9.87
78961;BMP280;68362;45.970;12.646;2023-04-03T03:35:27;100999.19;;;9.99
78961;BMP280;68362;45.970;12.646;2023-04-03T03:36:29;101001.38;;;10.02
78961;BMP280;68362;45.970;12.646;2023-04-03T03:37:32;100998.97;;;9.94
78961;BMP280;68362;45.970;12.646;2023-04-03T03:38:34;101003.41;;;10.00
78961;BMP280;68362;45.970;12.646;2023-04-03T03:39:36;101002.00;;;9.91
78961;BMP280;68362;45.970;12.646;2023-04-03T03:40:38;101012.31;;;9.92
78961;BMP280;68362;45.970;12.646;2023-04-03T03:41:40;101006.25;;;9.78
78961;BMP280;68362;45.970;12.646;2023-04-03T03:42:42;101003.41;;;9.87
78961;BMP280;68362;45.970;12.646;2023-04-03T03:43:44;100999.78;;;9.94
78961;BMP280;68362;45.970;12.646;2023-04-03T03:44:46;100992.91;;;10.00
78961;BMP280;68362;45.970;12.646;2023-04-03T03:45:52;101007.88;;;9.79
78961;BMP280;68362;45.970;12.646;2023-04-03T03:46:55;101006.06;;;9.73
78961;BMP280;68362;45.970;12.646;2023-04-03T03:47:58;101007.44;;;9.96
78961;BMP280;68362;45.970;12.646;2023-04-03T03:49:00;101002.59;;;9.93
78961;BMP280;68362;45.970;12.646;2023-04-03T03:50:02;101005.66;;;9.90
78961;BMP280;68362;45.970;12.646;2023-04-03T03:51:04;101011.50;;;9.92
78961;BMP280;68362;45.970;12.646;2023-04-03T03:52:06;101001.81;;;9.99
78961;BMP280;68362;45.970;12.646;2023-04-03T03:53:12;101007.03;;;9.99
78961;BMP280;68362;45.970;12.646;2023-04-03T03:54:14;101005.22;;;9.93
78961;BMP280;68362;45.970;12.646;2023-04-03T03:55:16;101008.66;;;9.87
78961;BMP280;68362;45.970;12.646;2023-04-03T03:56:18;101005.03;;;9.88
78961;BMP280;68362;45.970;12.646;2023-04-03T03:57:22;101002.84;;;9.91
78961;BMP280;68362;45.970;12.646;2023-04-03T03:58:24;101002.63;;;9.79
78961;BMP280;68362;45.970;12.646;2023-04-03T03:59:27;101009.09;;;9.57
78961;BMP280;68362;45.970;12.646;2023-04-03T04:00:29;101007.06;;;9.59
78961;BMP280;68362;45.970;12.646;2023-04-03T04:01:32;101016.22;;;8.95
78961;BMP280;68362;45.970;12.646;2023-04-03T04:02:34;101015.47;;;8.95
78961;BMP280;68362;45.970;12.646;2023-04-03T04:03:36;101014.84;;;8.93
78961;BMP280;68362;45.970;12.646;2023-04-03T04:04:39;101016.16;;;8.75
78961;BMP280;68362;45.970;12.646;2023-04-03T04:05:41;101010.06;;;8.62
78961;BMP280;68362;45.970;12.646;2023-04-03T04:06:43;101007.81;;;8.52
78961;BMP280;68362;45.970;12.646;2023-04-03T04:07:45;101013.28;;;8.50
78961;BMP280;68362;45.970;12.646;2023-04-03T04:08:47;101017.75;;;8.63
78961;BMP280;68362;45.970;12.646;2023-04-03T04:09:49;101018.59;;;8.77
78961;BMP280;68362;45.970;12.646;2023-04-03T04:10:51;101014.03;;;8.51
78961;BMP280;68362;45.970;12.646;2023-04-03T04:11:54;101020.84;;;8.39
78961;BMP280;68362;45.970;12.646;2023-04-03T04:12:56;101021.13;;;8.57
78961;BMP280;68362;45.970;12.646;2023-04-03T04:13:59;101023.66;;;8.44
78961;BMP280;68362;45.970;12.646;2023-04-03T04:15:02;101023.72;;;8.50
78961;BMP280;68362;45.970;12.646;2023-04-03T04:16:05;101022.69;;;8.45
78961;BMP280;68362;45.970;12.646;2023-04-03T04:17:07;101025.69;;;8.42
78961;BMP280;68362;45.970;12.646;2023-04-03T04:18:09;101020.66;;;8.47
78961;BMP280;68362;45.970;12.646;2023-04-03T04:19:12;101021.44;;;8.41
78961;BMP280;68362;45.970;12.646;2023-04-03T04:20:14;101026.09;;;8.45
78961;BMP280;68362;45.970;12.646;2023-04-03T04:21:17;101023.19;;;8.68
78961;BMP280;68362;45.970;12.646;2023-04-03T04:22:19;101022.34;;;8.61
78961;BMP280;68362;45.970;12.646;2023-04-03T04:23:21;101028.34;;;8.55
78961;BMP280;68362;45.970;12.646;2023-04-03T04:24:23;101031.75;;;8.49
78961;BMP280;68362;45.970;12.646;2023-04-03T04:25:25;101024.72;;;8.49
78961;BMP280;68362;45.970;12.646;2023-04-03T04:26:27;101035.75;;;8.45
78961;BMP280;68362;45.970;12.646;2023-04-03T04:27:29;101032.28;;;8.38
78961;BMP280;68362;45.970;12.646;2023-04-03T04:28:32;101034.94;;;8.44
78961;BMP280;68362;45.970;12.646;2023-04-03T04:29:34;101024.06;;;8.41
78961;BMP280;68362;45.970;12.646;2023-04-03T04:30:38;101030.63;;;8.30
78961;BMP280;68362;45.970;12.646;2023-04-03T04:31:40;101027.97;;;8.23
78961;BMP280;68362;45.970;12.646;2023-04-03T04:32:43;101031.63;;;8.29
78961;BMP280;68362;45.970;12.646;2023-04-03T04:33:45;101029.28;;;8.41
78961;BMP280;68362;45.970;12.646;2023-04-03T04:34:47;101035.25;;;8.28
78961;BMP280;68362;45.970;12.646;2023-04-03T04:35:49;101028.81;;;8.31
78961;BMP280;68362;45.970;12.646;2023-04-03T04:36:52;101031.28;;;8.39
78961;BMP280;68362;45.970;12.646;2023-04-03T04:37:54;101032.41;;;8.30
78961;BMP280;68362;45.970;12.646;2023-04-03T04:38:56;101035.16;;;8.43
78961;BMP280;68362;45.970;12.646;2023-04-03T04:39:58;101032.41;;;8.30
78961;BMP280;68362;45.970;12.646;2023-04-03T04:41:01;101035.91;;;8.37
78961;BMP280;68362;45.970;12.646;2023-04-03T04:42:03;101030.81;;;8.29
78961;BMP280;68362;45.970;12.646;2023-04-03T04:43:04;101035.88;;;8.30
78961;BMP280;68362;45.970;12.646;2023-04-03T04:44:07;101033.25;;;8.30
78961;BMP280;68362;45.970;12.646;2023-04-03T04:45:09;101039.03;;;8.60
78961;BMP280;68362;45.970;12.646;2023-04-03T04:46:11;101031.00;;;8.62
78961;BMP280;68362;45.970;12.646;2023-04-03T04:47:14;101030.25;;;8.68
78961;BMP280;68362;45.970;12.646;2023-04-03T04:48:16;101031.47;;;8.72
78961;BMP280;68362;45.970;12.646;2023-04-03T04:49:18;101030.25;;;8.68
78961;BMP280;68362;45.970;12.646;2023-04-03T04:50:20;101037.84;;;8.56
78961;BMP280;68362;45.970;12.646;2023-04-03T04:51:22;101031.03;;;8.68
78961;BMP280;68362;45.970;12.646;2023-04-03T04:52:24;101041.53;;;8.75
78961;BMP280;68362;45.970;12.646;2023-04-03T04:53:27;101040.72;;;8.74
78961;BMP280;68362;45.970;12.646;2023-04-03T04:54:29;101038.00;;;9.02
78961;BMP280;68362;45.970;12.646;2023-04-03T04:55:31;101039.84;;;9.02
78961;BMP280;68362;45.970;12.646;2023-04-03T04:56:33;101032.75;;;9.02
78961;BMP280;68362;45.970;12.646;2023-04-03T04:57:35;101036.78;;;8.92
78961;BMP280;68362;45.970;12.646;2023-04-03T04:58:38;101047.69;;;9.09
78961;BMP280;68362;45.970;12.646;2023-04-03T04:59:40;101041.00;;;8.93
78961;BMP280;68362;45.970;12.646;2023-04-03T05:00:43;101048.53;;;9.22
78961;BMP280;68362;45.970;12.646;2023-04-03T05:01:45;101051.75;;;9.31
78961;BMP280;68362;45.970;12.646;2023-04-03T05:02:47;101041.75;;;9.48
78961;BMP280;68362;45.970;12.646;2023-04-03T05:03:49;101045.78;;;9.57
78961;BMP280;68362;45.970;12.646;2023-04-03T05:04:51;101047.00;;;9.68
78961;BMP280;68362;45.970;12.646;2023-04-03T05:05:54;101041.94;;;9.53
78961;BMP280;68362;45.970;12.646;2023-04-03T05:06:56;101044.25;;;9.01
78961;BMP280;68362;45.970;12.646;2023-04-03T05:07:58;101038.91;;;9.29
78961;BMP280;68362;45.970;12.646;2023-04-03T05:09:00;101047.16;;;9.46
78961;BMP280;68362;45.970;12.646;2023-04-03T05:10:03;101043.75;;;9.59
78961;BMP280;68362;45.970;12.646;2023-04-03T05:11:05;101046.78;;;9.69
78961;BMP280;68362;45.970;12.646;2023-04-03T05:12:07;101045.00;;;9.76
78961;BMP280;68362;45.970;12.646;2023-04-03T05:13:09;101044.97;;;9.83
78961;BMP280;68362;45.970;12.646;2023-04-03T05:14:12;101044.75;;;9.85
78961;BMP280;68362;45.970;12.646;2023-04-03T05:15:14;101043.53;;;9.67
78961;BMP280;68362;45.970;12.646;2023-04-03T05:16:16;101042.56;;;9.75
78961;BMP280;68362;45.970;12.646;2023-04-03T05:17:18;101046.81;;;9.83
78961;BMP280;68362;45.970;12.646;2023-04-03T05:18:20;101050.03;;;9.78
78961;BMP280;68362;45.970;12.646;2023-04-03T05:19:22;101057.69;;;9.79
78961;BMP280;68362;45.970;12.646;2023-04-03T05:20:24;101053.84;;;9.69
78961;BMP280;68362;45.970;12.646;2023-04-03T05:21:27;101051.00;;;9.70
78961;BMP280;68362;45.970;12.646;2023-04-03T05:22:34;101052.66;;;9.71
78961;BMP280;68362;45.970;12.646;2023-04-03T05:23:36;101053.03;;;9.68
78961;BMP280;68362;45.970;12.646;2023-04-03T05:24:38;101057.66;;;9.73
78961;BMP280;68362;45.970;12.646;2023-04-03T05:25:40;101051.03;;;9.84
78961;BMP280;68362;45.970;12.646;2023-04-03T05:26:43;101053.84;;;9.89
78961;BMP280;68362;45.970;12.646;2023-04-03T05:27:45;101053.47;;;9.65
78961;BMP280;68362;45.970;12.646;2023-04-03T05:28:47;101058.69;;;9.59
78961;BMP280;68362;45.970;12.646;2023-04-03T05:29:49;101057.81;;;9.25
78961;BMP280;68362;45.970;12.646;2023-04-03T05:30:56;101062.88;;;9.33
78961;BMP280;68362;45.970;12.646;2023-04-03T05:31:58;101056.22;;;9.44
78961;BMP280;68362;45.970;12.646;2023-04-03T05:33:00;101057.47;;;9.41
78961;BMP280;68362;45.970;12.646;2023-04-03T05:34:02;101054.03;;;9.54
78961;BMP280;68362;45.970;12.646;2023-04-03T05:35:05;101060.28;;;9.73
78961;BMP280;68362;45.970;12.646;2023-04-03T05:36:08;101063.53;;;9.62
78961;BMP280;68362;45.970;12.646;2023-04-03T05:37:11;101064.53;;;9.80
78961;BMP280;68362;45.970;12.646;2023-04-03T05:38:13;101059.50;;;9.92
78961;BMP280;68362;45.970;12.646;2023-04-03T05:39:15;101063.13;;;9.98
78961;BMP280;68362;45.970;12.646;2023-04-03T05:40:17;101061.91;;;9.80
78961;BMP280;68362;45.970;12.646;2023-04-03T05:41:20;101065.16;;;9.83
78961;BMP280;68362;45.970;12.646;2023-04-03T05:42:22;101061.72;;;9.89
78961;BMP280;68362;45.970;12.646;2023-04-03T05:43:25;101061.09;;;10.00
78961;BMP280;68362;45.970;12.646;2023-04-03T05:44:27;101056.06;;;9.98
78961;BMP280;68362;45.970;12.646;2023-04-03T05:45:29;101062.91;;;9.93
78961;BMP280;68362;45.970;12.646;2023-04-03T05:46:31;101065.56;;;10.06
78961;BMP280;68362;45.970;12.646;2023-04-03T05:47:33;101065.72;;;10.11
78961;BMP280;68362;45.970;12.646;2023-04-03T05:48:36;101070.78;;;10.13
78961;BMP280;68362;45.970;12.646;2023-04-03T05:49:38;101072.00;;;9.84
78961;BMP280;68362;45.970;12.646;2023-04-03T05:50:42;101075.81;;;10.01
78961;BMP280;68362;45.970;12.646;2023-04-03T05:51:45;101067.56;;;10.04
78961;BMP280;68362;45.970;12.646;2023-04-03T05:52:49;101072.38;;;9.47
78961;BMP280;68362;45.970;12.646;2023-04-03T05:53:59;101075.34;;;9.24
78961;BMP280;68362;45.970;12.646;2023-04-03T05:55:03;101072.25;;;9.01
78961;BMP280;68362;45.970;12.646;2023-04-03T05:56:05;101080.34;;;9.19
78961;BMP280;68362;45.970;12.646;2023-04-03T05:57:07;101079.88;;;8.96
78961;BMP280;68362;45.970;12.646;2023-04-03T05:58:09;101078.91;;;9.10